createdAt,value
2023-05-11T00:06:07.580Z,0.00
2023-05-11T00:17:09.310Z,0.00
2023-05-11T00:28:11.083Z,0.00
2023-05-11T00:39:12.790Z,0.00
2023-05-11T00:46:34.508Z,2.61
2023-05-11T00:57:36.184Z,2.27
2023-05-11T01:04:57.862Z,2.61
2023-05-11T01:08:39.388Z,2.35
2023-05-11T01:19:41.138Z,0.00
2023-05-11T01:30:42.875Z,0.00
2023-05-11T01:41:44.567Z,0.00
2023-05-11T01:52:46.323Z,0.00
2023-05-11T02:03:48.084Z,0.00
2023-05-11T02:14:49.763Z,0.00
2023-05-11T02:25:51.453Z,0.00
2023-05-11T02:36:53.216Z,0.00
2023-05-11T02:47:55.123Z,3.12
2023-05-11T02:51:36.556Z,2.51
2023-05-11T02:55:18.178Z,2.32
2023-05-11T03:06:19.854Z,0.00
2023-05-11T03:17:21.611Z,0.00
2023-05-11T03:28:23.290Z,0.00
2023-05-11T03:39:25.032Z,0.00
2023-05-11T03:50:26.721Z,0.00
2023-05-11T03:57:48.466Z,2.87
2023-05-11T04:08:50.137Z,0.00
2023-05-11T04:19:51.881Z,0.00
2023-05-11T04:30:53.591Z,0.00
2023-05-11T04:41:55.337Z,0.00
2023-05-11T04:52:57.053Z,0.00
2023-05-11T05:03:58.824Z,0.00
2023-05-11T05:15:00.498Z,0.00
2023-05-11T05:26:02.251Z,0.00
2023-05-11T05:37:03.941Z,0.00
2023-05-11T05:48:05.733Z,0.00
2023-05-11T05:59:07.382Z,0.00
2023-05-11T06:10:09.109Z,0.00
2023-05-11T06:21:10.807Z,0.00
2023-05-11T06:32:12.562Z,0.00
2023-05-11T06:43:14.283Z,0.00
2023-05-11T06:54:16.033Z,0.00
2023-05-11T07:05:17.734Z,0.00
2023-05-11T07:16:19.519Z,0.00
2023-05-11T07:27:21.191Z,0.00
2023-05-11T07:38:22.925Z,0.00
2023-05-11T07:49:31.372Z,0.00
2023-05-11T08:00:26.447Z,0.00
2023-05-11T08:11:28.112Z,0.00
2023-05-11T08:22:29.902Z,0.00
2023-05-11T08:29:51.439Z,2.09
2023-05-11T08:40:53.255Z,2.55
2023-05-11T08:51:54.952Z,0.00
2023-05-11T09:02:56.792Z,3.19
2023-05-11T09:06:38.289Z,2.31
2023-05-11T09:10:19.879Z,1.90
2023-05-11T09:14:01.436Z,1.96
2023-05-11T09:17:43.040Z,2.87
2023-05-11T09:28:46.113Z,0.00
2023-05-11T09:50:48.205Z,0.00
2023-05-11T10:01:49.954Z,0.00
2023-05-11T10:12:51.675Z,2.09
2023-05-11T10:16:33.255Z,2.09
2023-05-11T10:27:34.960Z,0.00
2023-05-11T10:38:36.690Z,0.00
2023-05-11T10:49:38.390Z,0.00
2023-05-11T11:00:40.177Z,0.00
2023-05-11T11:04:21.748Z,2.09
2023-05-11T11:08:03.381Z,2.36
2023-05-11T11:19:05.317Z,0.00
2023-05-11T11:22:46.706Z,2.70
2023-05-11T11:33:48.450Z,0.00
2023-05-11T11:44:50.167Z,0.00
2023-05-11T11:55:51.860Z,0.00
2023-05-11T12:03:13.733Z,5.10
2023-05-11T12:06:55.283Z,3.50
2023-05-11T12:10:36.953Z,3.09
2023-05-11T12:14:18.583Z,5.08
2023-05-11T12:18:00.300Z,3.68
2023-05-11T12:25:22.342Z,3.45
2023-05-11T12:29:03.581Z,3.15
2023-05-11T12:32:45.251Z,4.30
2023-05-11T12:36:26.774Z,2.09
2023-05-11T12:40:08.486Z,2.95
2023-05-11T12:43:50.253Z,3.76
2023-05-11T12:47:32.120Z,3.82
2023-05-11T12:51:13.823Z,3.11
2023-05-11T12:54:56.030Z,3.48
2023-05-11T12:58:37.258Z,3.59
2023-05-11T13:02:18.988Z,2.86
2023-05-11T13:06:02.555Z,3.44
2023-05-11T13:09:42.383Z,4.63
2023-05-11T13:13:24.041Z,4.02
2023-05-11T13:17:05.600Z,3.64
2023-05-11T13:20:47.214Z,2.17
2023-05-11T13:31:48.944Z,0.00
2023-05-11T13:42:50.735Z,2.42
2023-05-11T13:50:12.438Z,3.90
2023-05-11T13:53:54.057Z,2.26
2023-05-11T13:57:35.687Z,2.17
2023-05-11T14:01:17.426Z,3.87
2023-05-11T14:08:39.110Z,3.33
2023-05-11T14:12:20.810Z,4.62
2023-05-11T14:16:02.580Z,5.16
2023-05-11T14:19:44.451Z,3.76
2023-05-11T14:23:25.969Z,3.10
2023-05-11T14:27:07.558Z,2.77
2023-05-11T14:30:49.253Z,3.28
2023-05-11T14:34:30.787Z,3.25
2023-05-11T14:41:52.491Z,2.09
2023-05-11T14:45:34.043Z,2.15
2023-05-11T14:49:15.620Z,2.48
2023-05-11T15:00:17.361Z,0.00
2023-05-11T15:07:39.067Z,4.64
2023-05-11T15:11:20.827Z,3.74
2023-05-11T15:15:02.535Z,4.19
2023-05-11T15:18:44.206Z,3.21
2023-05-11T15:22:25.913Z,5.08
2023-05-11T15:26:07.585Z,2.79
2023-05-11T15:29:49.163Z,2.48
2023-05-11T15:40:50.930Z,0.00
2023-05-11T15:51:52.637Z,0.00
2023-05-11T16:02:54.468Z,0.00
2023-05-11T16:13:56.127Z,0.00
2023-05-11T16:24:57.969Z,4.33
2023-05-11T16:28:39.590Z,3.25
2023-05-11T16:39:41.362Z,0.00
2023-05-11T16:50:43.226Z,0.00
2023-05-11T17:01:45.213Z,0.00
2023-05-11T17:09:07.162Z,2.48
2023-05-11T17:20:09.192Z,0.00
2023-05-11T17:27:31.218Z,3.19
2023-05-11T17:38:33.307Z,0.00
2023-05-11T17:49:35.420Z,0.00
2023-05-11T18:00:37.535Z,0.00
2023-05-11T18:11:39.635Z,0.00
2023-05-11T18:22:41.689Z,0.00
2023-05-11T18:33:43.837Z,0.00
2023-05-11T18:44:45.927Z,0.00
2023-05-11T18:55:53.279Z,0.00
2023-05-11T19:06:50.197Z,0.00
2023-05-11T19:17:52.330Z,0.00
2023-05-11T19:28:54.423Z,0.00
2023-05-11T19:40:06.474Z,0.00
2023-05-11T19:50:58.682Z,0.00
2023-05-11T20:02:01.030Z,0.00
2023-05-11T20:13:02.941Z,0.00
2023-05-11T20:24:05.052Z,0.00
2023-05-11T20:35:07.109Z,0.00
2023-05-11T20:46:09.218Z,0.00
2023-05-11T20:57:11.028Z,0.00
2023-05-11T21:08:13.730Z,0.00
2023-05-11T21:19:15.422Z,0.00
2023-05-11T21:30:17.456Z,0.00
2023-05-11T21:41:18.865Z,0.00
2023-05-11T21:52:20.639Z,0.00
2023-05-11T22:03:22.423Z,0.00
2023-05-11T22:14:24.164Z,0.00
2023-05-11T22:25:25.797Z,0.00
2023-05-11T22:36:27.530Z,0.00
2023-05-11T22:47:29.277Z,0.00
2023-05-11T22:58:30.984Z,0.00
2023-05-11T23:09:32.676Z,0.00
2023-05-11T23:20:34.471Z,0.00
2023-05-11T23:31:36.221Z,0.00
2023-05-11T23:42:37.904Z,0.00
2023-05-11T23:53:39.621Z,0.00
